sensor_id;sensor_type;location;lat;lon;timestamp;pressure;altitude;pressure_sealevel;temperature;humidity
44825;BME280;30542;47.928;2.138;2023-08-01T00:05:00;99438.94;;;24.63;49.55
44825;BME280;30542;47.928;2.138;2023-08-01T00:10:00;99442.41;;;24.63;49.61
44825;BME280;30542;47.928;2.138;2023-08-01T00:15:01;99445.13;;;24.63;49.66
44825;BME280;30542;47.928;2.138;2023-08-01T00:20:02;99429.44;;;24.57;49.80
44825;BME280;30542;47.928;2.138;2023-08-01T00:25:03;99442.75;;;24.62;49.75
44825;BME280;30542;47.928;2.138;2023-08-01T00:30:04;99424.53;;;24.59;49.94
44825;BME280;30542;47.928;2.138;2023-08-01T00:35:05;99427.72;;;24.61;49.91
44825;BME280;30542;47.928;2.138;2023-08-01T00:40:06;99426.13;;;24.60;49.94
44825;BME280;30542;47.928;2.138;2023-08-01T00:45:07;99416.16;;;24.60;50.02
44825;BME280;30542;47.928;2.138;2023-08-01T00:50:08;99412.66;;;24.60;50.07
44825;BME280;30542;47.928;2.138;2023-08-01T00:55:09;99402.97;;;24.59;50.11
44825;BME280;30542;47.928;2.138;2023-08-01T01:00:09;99401.91;;;24.60;50.14
44825;BME280;30542;47.928;2.138;2023-08-01T01:05:10;99391.13;;;24.60;50.23
44825;BME280;30542;47.928;2.138;2023-08-01T01:10:10;99404.88;;;24.58;50.28
44825;BME280;30542;47.928;2.138;2023-08-01T01:15:11;99384.13;;;24.59;50.28
44825;BME280;30542;47.928;2.138;2023-08-01T01:20:11;99396.81;;;24.58;50.35
44825;BME280;30542;47.928;2.138;2023-08-01T01:25:11;99385.25;;;24.58;50.37
44825;BME280;30542;47.928;2.138;2023-08-01T01:30:12;99387.94;;;24.58;50.39
44825;BME280;30542;47.928;2.138;2023-08-01T01:35:13;99377.19;;;24.58;50.22
44825;BME280;30542;47.928;2.138;2023-08-01T01:40:13;99373.69;;;24.57;50.56
44825;BME280;30542;47.928;2.138;2023-08-01T01:45:14;99371.00;;;24.57;50.42
44825;BME280;30542;47.928;2.138;2023-08-01T01:50:14;99364.84;;;24.57;50.61
44825;BME280;30542;47.928;2.138;2023-08-01T01:55:14;99354.06;;;24.57;50.52
44825;BME280;30542;47.928;2.138;2023-08-01T02:00:15;99348.69;;;24.57;50.63
44825;BME280;30542;47.928;2.138;2023-08-01T02:05:15;99348.19;;;24.54;50.54
44825;BME280;30542;47.928;2.138;2023-08-01T02:10:15;99349.78;;;24.55;50.55
44825;BME280;30542;47.928;2.138;2023-08-01T02:15:16;99353.28;;;24.56;50.57
44825;BME280;30542;47.928;2.138;2023-08-01T02:20:16;99344.41;;;24.55;50.54
44825;BME280;30542;47.928;2.138;2023-08-01T02:25:17;99340.13;;;24.54;50.51
44825;BME280;30542;47.928;2.138;2023-08-01T02:30:17;99331.25;;;24.54;50.59
44825;BME280;30542;47.928;2.138;2023-08-01T02:35:17;99330.13;;;24.55;50.68
44825;BME280;30542;47.928;2.138;2023-08-01T02:40:18;99322.72;;;24.52;50.64
44825;BME280;30542;47.928;2.138;2023-08-01T02:45:18;99333.16;;;24.53;50.59
44825;BME280;30542;47.928;2.138;2023-08-01T02:50:19;99326.66;;;24.54;50.47
44825;BME280;30542;47.928;2.138;2023-08-01T02:55:19;99329.50;;;24.58;50.62
44825;BME280;30542;47.928;2.138;2023-08-01T03:00:20;99335.22;;;24.57;50.63
44825;BME280;30542;47.928;2.138;2023-08-01T03:05:20;99319.22;;;24.51;50.53
44825;BME280;30542;47.928;2.138;2023-08-01T03:10:20;99318.56;;;24.54;50.69
44825;BME280;30542;47.928;2.138;2023-08-01T03:15:21;99312.41;;;24.54;50.56
44825;BME280;30542;47.928;2.138;2023-08-01T03:20:21;99317.00;;;24.53;50.73
44825;BME280;30542;47.928;2.138;2023-08-01T03:25:22;99302.75;;;24.53;50.79
44825;BME280;30542;47.928;2.138;2023-08-01T03:30:23;99295.78;;;24.52;50.77
44825;BME280;30542;47.928;2.138;2023-08-01T03:35:23;99307.34;;;24.52;50.87
44825;BME280;30542;47.928;2.138;2023-08-01T03:40:24;99315.44;;;24.52;50.87
44825;BME280;30542;47.928;2.138;2023-08-01T03:45:24;99314.31;;;24.53;50.80
44825;BME280;30542;47.928;2.138;2023-08-01T03:50:25;99307.97;;;24.49;50.70
44825;BME280;30542;47.928;2.138;2023-08-01T03:55:25;99320.81;;;24.52;50.90
44825;BME280;30542;47.928;2.138;2023-08-01T04:00:26;99342.34;;;24.52;51.02
44825;BME280;30542;47.928;2.138;2023-08-01T04:05:32;99353.13;;;24.52;51.24
44825;BME280;30542;47.928;2.138;2023-08-01T04:10:33;99344.25;;;24.52;51.04
44825;BME280;30542;47.928;2.138;2023-08-01T04:15:33;99349.63;;;24.52;51.24
44825;BME280;30542;47.928;2.138;2023-08-01T04:20:33;99346.16;;;24.51;51.15
44825;BME280;30542;47.928;2.138;2023-08-01T04:25:33;99356.09;;;24.51;51.05
44825;BME280;30542;47.928;2.138;2023-08-01T04:30:34;99352.63;;;24.50;51.07
44825;BME280;30542;47.928;2.138;2023-08-01T04:35:34;99380.34;;;24.51;50.98
44825;BME280;30542;47.928;2.138;2023-08-01T04:40:34;99390.63;;;24.49;51.10
44825;BME280;30542;47.928;2.138;2023-08-01T04:45:35;99399.19;;;24.51;51.09
44825;BME280;30542;47.928;2.138;2023-08-01T04:50:36;99399.19;;;24.51;51.11
44825;BME280;30542;47.928;2.138;2023-08-01T04:55:36;99406.47;;;24.50;51.35
44825;BME280;30542;47.928;2.138;2023-08-01T05:00:37;99415.66;;;24.49;51.12
44825;BME280;30542;47.928;2.138;2023-08-01T05:05:37;99423.72;;;24.49;51.13
44825;BME280;30542;47.928;2.138;2023-08-01T05:10:38;99429.75;;;24.46;51.14
44825;BME280;30542;47.928;2.138;2023-08-01T05:15:38;99448.28;;;24.48;51.12
44825;BME280;30542;47.928;2.138;2023-08-01T05:20:38;99457.16;;;24.48;51.03
44825;BME280;30542;47.928;2.138;2023-08-01T05:25:39;99458.25;;;24.47;51.23
44825;BME280;30542;47.928;2.138;2023-08-01T05:30:40;99457.47;;;24.47;51.08
44825;BME280;30542;47.928;2.138;2023-08-01T05:35:40;99481.72;;;24.47;50.94
44825;BME280;30542;47.928;2.138;2023-08-01T05:40:40;99483.56;;;24.46;50.92
44825;BME280;30542;47.928;2.138;2023-08-01T05:45:40;99488.97;;;24.46;50.90
44825;BME280;30542;47.928;2.138;2023-08-01T05:50:41;99498.94;;;24.46;50.83
44825;BME280;30542;47.928;2.138;2023-08-01T05:55:41;99512.41;;;24.46;50.79
44825;BME280;30542;47.928;2.138;2023-08-01T06:00:42;99517.00;;;24.45;50.74
44825;BME280;30542;47.928;2.138;2023-08-01T06:05:42;99534.25;;;24.44;50.73
44825;BME280;30542;47.928;2.138;2023-08-01T06:10:43;99532.69;;;24.43;50.76
44825;BME280;30542;47.928;2.138;2023-08-01T06:15:43;99533.16;;;24.45;50.67
44825;BME280;30542;47.928;2.138;2023-08-01T06:20:43;99530.47;;;24.45;50.78
44825;BME280;30542;47.928;2.138;2023-08-01T06:25:44;99545.81;;;24.45;50.70
44825;BME280;30542;47.928;2.138;2023-08-01T06:30:45;99552.31;;;24.44;50.95
44825;BME280;30542;47.928;2.138;2023-08-01T06:35:45;99543.44;;;24.43;50.66
44825;BME280;30542;47.928;2.138;2023-08-01T06:40:46;99548.03;;;24.43;50.68
44825;BME280;30542;47.928;2.138;2023-08-01T06:45:46;99561.41;;;24.34;50.12
44825;BME280;30542;47.928;2.138;2023-08-01T06:50:46;99559.44;;;24.17;49.90
44825;BME280;30542;47.928;2.138;2023-08-01T06:55:47;99574.34;;;24.15;49.45
44825;BME280;30542;47.928;2.138;2023-08-01T07:00:47;99581.56;;;24.05;49.71
44825;BME280;30542;47.928;2.138;2023-08-01T07:05:47;99582.97;;;24.03;49.18
44825;BME280;30542;47.928;2.138;2023-08-01T07:10:48;99580.59;;;24.01;49.49
44825;BME280;30542;47.928;2.138;2023-08-01T07:15:48;99586.78;;;24.02;49.05
44825;BME280;30542;47.928;2.138;2023-08-01T07:21:02;99589.41;;;23.93;48.78
44825;BME280;30542;47.928;2.138;2023-08-01T07:26:02;99607.31;;;23.98;48.89
44825;BME280;30542;47.928;2.138;2023-08-01T07:31:05;99607.13;;;23.94;48.62
44825;BME280;30542;47.928;2.138;2023-08-01T07:36:05;99604.28;;;23.91;48.27
44825;BME280;30542;47.928;2.138;2023-08-01T07:41:06;99602.50;;;23.86;48.23
44825;BME280;30542;47.928;2.138;2023-08-01T07:46:07;99611.03;;;23.88;48.31
44825;BME280;30542;47.928;2.138;2023-08-01T07:51:09;99612.16;;;23.87;48.44
44825;BME280;30542;47.928;2.138;2023-08-01T07:56:11;99607.69;;;23.83;48.42
44825;BME280;30542;47.928;2.138;2023-08-01T08:01:12;99612.59;;;23.80;48.41
44825;BME280;30542;47.928;2.138;2023-08-01T08:06:12;99611.78;;;23.80;48.57
44825;BME280;30542;47.928;2.138;2023-08-01T08:11:13;99614.59;;;23.75;48.52
44825;BME280;30542;47.928;2.138;2023-08-01T08:16:13;99624.25;;;23.76;48.50
44825;BME280;30542;47.928;2.138;2023-08-01T08:21:13;99633.94;;;23.77;48.59
44825;BME280;30542;47.928;2.138;2023-08-01T08:26:13;99632.31;;;23.76;48.60
44825;BME280;30542;47.928;2.138;2023-08-01T08:31:14;99638.31;;;23.73;48.20
44825;BME280;30542;47.928;2.138;2023-08-01T08:36:14;99629.94;;;23.74;48.61
44825;BME280;30542;47.928;2.138;2023-08-01T08:41:20;99625.81;;;23.68;48.59
44825;BME280;30542;47.928;2.138;2023-08-01T08:46:21;99648.78;;;23.61;48.35
44825;BME280;30542;47.928;2.138;2023-08-01T08:51:26;99643.03;;;23.53;48.46
44825;BME280;30542;47.928;2.138;2023-08-01T08:56:28;99643.03;;;23.53;48.55
44825;BME280;30542;47.928;2.138;2023-08-01T09:01:29;99649.41;;;23.57;48.85
44825;BME280;30542;47.928;2.138;2023-08-01T09:06:39;99658.25;;;23.58;48.44
44825;BME280;30542;47.928;2.138;2023-08-01T09:11:42;99655.56;;;23.58;48.84
44825;BME280;30542;47.928;2.138;2023-08-01T09:16:44;99653.78;;;23.53;48.95
44825;BME280;30542;47.928;2.138;2023-08-01T09:21:46;99649.88;;;23.60;49.12
44825;BME280;30542;47.928;2.138;2023-08-01T09:26:48;99653.06;;;23.62;49.24
44825;BME280;30542;47.928;2.138;2023-08-01T09:31:49;99663.81;;;23.62;49.23
44825;BME280;30542;47.928;2.138;2023-08-01T09:36:50;99661.13;;;23.62;49.22
44825;BME280;30542;47.928;2.138;2023-08-01T09:41:58;99662.25;;;23.61;49.81
44825;BME280;30542;47.928;2.138;2023-08-01T09:46:59;99673.28;;;23.59;49.74
44825;BME280;30542;47.928;2.138;2023-08-01T09:52:00;99680.06;;;23.56;49.51
44825;BME280;30542;47.928;2.138;2023-08-01T09:57:02;99681.97;;;23.56;49.18
44825;BME280;30542;47.928;2.138;2023-08-01T10:02:05;99690.31;;;23.54;49.05
44825;BME280;30542;47.928;2.138;2023-08-01T10:07:13;99694.13;;;23.53;48.74
44825;BME280;30542;47.928;2.138;2023-08-01T10:12:17;99685.84;;;23.50;48.63
44825;BME280;30542;47.928;2.138;2023-08-01T10:17:19;99685.56;;;23.51;48.72
44825;BME280;30542;47.928;2.138;2023-08-01T10:22:20;99681.06;;;23.47;48.36
44825;BME280;30542;47.928;2.138;2023-08-01T10:27:21;99683.97;;;23.50;48.03
44825;BME280;30542;47.928;2.138;2023-08-01T10:37:43;99682.97;;;23.46;48.15
44825;BME280;30542;47.928;2.138;2023-08-01T10:42:45;99686.88;;;23.40;48.05
44825;BME280;30542;47.928;2.138;2023-08-01T10:47:46;99685.97;;;23.45;48.24
44825;BME280;30542;47.928;2.138;2023-08-01T10:52:46;99695.63;;;23.46;48.33
44825;BME280;30542;47.928;2.138;2023-08-01T10:57:48;99693.13;;;23.49;48.23
44825;BME280;30542;47.928;2.138;2023-08-01T11:02:50;99690.94;;;23.51;48.34
44825;BME280;30542;47.928;2.138;2023-08-01T11:08:01;99690.63;;;23.53;48.20
44825;BME280;30542;47.928;2.138;2023-08-01T11:13:01;99692.81;;;23.51;48.16
44825;BME280;30542;47.928;2.138;2023-08-01T11:18:02;99683.03;;;23.55;48.06
44825;BME280;30542;47.928;2.138;2023-08-01T11:23:02;99695.09;;;23.57;48.16
44825;BME280;30542;47.928;2.138;2023-08-01T11:28:15;99695.09;;;23.57;48.18
44825;BME280;30542;47.928;2.138;2023-08-01T11:33:20;99684.72;;;23.65;47.75
44825;BME280;30542;47.928;2.138;2023-08-01T11:38:26;99677.50;;;23.65;47.78
44825;BME280;30542;47.928;2.138;2023-08-01T11:43:40;99683.25;;;23.72;47.94
44825;BME280;30542;47.928;2.138;2023-08-01T11:48:45;99696.84;;;23.76;48.05
44825;BME280;30542;47.928;2.138;2023-08-01T11:53:46;99697.22;;;23.83;48.04
44825;BME280;30542;47.928;2.138;2023-08-01T11:58:57;99682.41;;;23.86;48.44
44825;BME280;30542;47.928;2.138;2023-08-01T12:03:58;99703.28;;;23.89;48.26
44825;BME280;30542;47.928;2.138;2023-08-01T12:09:12;99687.66;;;23.91;48.35
44825;BME280;30542;47.928;2.138;2023-08-01T12:14:14;99685.44;;;23.93;48.53
44825;BME280;30542;47.928;2.138;2023-08-01T12:19:18;99682.47;;;23.94;48.58
44825;BME280;30542;47.928;2.138;2023-08-01T12:24:19;99674.88;;;23.96;48.83
44825;BME280;30542;47.928;2.138;2023-08-01T12:29:19;99689.09;;;23.97;48.66
44825;BME280;30542;47.928;2.138;2023-08-01T12:34:20;99680.75;;;23.98;48.92
44825;BME280;30542;47.928;2.138;2023-08-01T12:39:20;99690.41;;;23.99;48.93
44825;BME280;30542;47.928;2.138;2023-08-01T12:44:21;99691.97;;;24.00;49.00
44825;BME280;30542;47.928;2.138;2023-08-01T12:49:21;99668.88;;;23.99;49.05
44825;BME280;30542;47.928;2.138;2023-08-01T12:54:21;99683.13;;;24.00;48.99
44825;BME280;30542;47.928;2.138;2023-08-01T12:59:22;99693.09;;;23.99;49.10
44825;BME280;30542;47.928;2.138;2023-08-01T13:04:22;99687.91;;;24.03;49.22
44825;BME280;30542;47.928;2.138;2023-08-01T13:09:23;99692.97;;;24.04;49.30
44825;BME280;30542;47.928;2.138;2023-08-01T13:14:24;99693.75;;;24.05;49.11
44825;BME280;30542;47.928;2.138;2023-08-01T13:19:25;99696.16;;;24.06;49.44
44825;BME280;30542;47.928;2.138;2023-08-01T13:24:25;99685.56;;;24.10;49.96
44825;BME280;30542;47.928;2.138;2023-08-01T13:29:26;99684.78;;;24.10;49.76
44825;BME280;30542;47.928;2.138;2023-08-01T13:34:26;99685.56;;;24.10;49.61
44825;BME280;30542;47.928;2.138;2023-08-01T13:39:26;99697.91;;;24.11;49.80
44825;BME280;30542;47.928;2.138;2023-08-01T13:44:28;99684.78;;;24.10;49.85
44825;BME280;30542;47.928;2.138;2023-08-01T13:49:28;99699.69;;;24.16;49.84
44825;BME280;30542;47.928;2.138;2023-08-01T13:54:29;99697.78;;;24.16;49.70
44825;BME280;30542;47.928;2.138;2023-08-01T13:59:30;99711.25;;;24.16;49.35
44825;BME280;30542;47.928;2.138;2023-08-01T14:04:31;99697.00;;;24.16;48.83
44825;BME280;30542;47.928;2.138;2023-08-01T14:09:31;99697.31;;;24.14;48.20
44825;BME280;30542;47.928;2.138;2023-08-01T14:14:32;99691.16;;;24.14;47.68
44825;BME280;30542;47.928;2.138;2023-08-01T14:19:33;99697.91;;;24.11;47.21
44825;BME280;30542;47.928;2.138;2023-08-01T14:24:33;99696.34;;;24.10;47.01
44825;BME280;30542;47.928;2.138;2023-08-01T14:29:34;99714.38;;;24.10;46.76
44825;BME280;30542;47.928;2.138;2023-08-01T14:34:34;99727.00;;;24.09;46.90
44825;BME280;30542;47.928;2.138;2023-08-01T14:39:34;99713.88;;;24.08;46.39
44825;BME280;30542;47.928;2.138;2023-08-01T14:44:35;99715.78;;;24.07;46.33
44825;BME280;30542;47.928;2.138;2023-08-01T14:49:35;99707.69;;;24.07;45.96
44825;BME280;30542;47.928;2.138;2023-08-01T14:54:36;99721.47;;;24.05;45.96
44825;BME280;30542;47.928;2.138;2023-08-01T14:59:38;99705.34;;;24.05;45.84
44825;BME280;30542;47.928;2.138;2023-08-01T15:04:38;99701.53;;;24.06;45.81
44825;BME280;30542;47.928;2.138;2023-08-01T15:09:42;99705.81;;;24.08;45.72
44825;BME280;30542;47.928;2.138;2023-08-01T15:14:42;99701.53;;;24.06;45.96
44825;BME280;30542;47.928;2.138;2023-08-01T15:19:43;99718.16;;;24.09;45.77
44825;BME280;30542;47.928;2.138;2023-08-01T15:24:47;99710.06;;;24.09;45.83
44825;BME280;30542;47.928;2.138;2023-08-01T15:29:47;99710.06;;;24.09;45.85
44825;BME280;30542;47.928;2.138;2023-08-01T15:34:47;99712.78;;;24.09;45.96
44825;BME280;30542;47.928;2.138;2023-08-01T15:39:48;99703.72;;;24.04;45.99
44825;BME280;30542;47.928;2.138;2023-08-01T15:44:48;99693.16;;;24.08;45.70
44825;BME280;30542;47.928;2.138;2023-08-01T15:49:49;99708.50;;;24.08;46.14
44825;BME280;30542;47.928;2.138;2023-08-01T15:54:49;99709.59;;;24.06;46.11
44825;BME280;30542;47.928;2.138;2023-08-01T15:59:50;99688.09;;;24.06;46.11
44825;BME280;30542;47.928;2.138;2023-08-01T16:04:50;99683.81;;;24.05;46.11
44825;BME280;30542;47.928;2.138;2023-08-01T16:09:50;99674.91;;;24.05;46.05
44825;BME280;30542;47.928;2.138;2023-08-01T16:14:51;99677.31;;;24.06;46.19
44825;BME280;30542;47.928;2.138;2023-08-01T16:19:51;99696.16;;;24.06;46.33
44825;BME280;30542;47.928;2.138;2023-08-01T16:24:51;99680.81;;;24.07;46.48
44825;BME280;30542;47.928;2.138;2023-08-01T16:29:52;99689.97;;;24.06;46.37
44825;BME280;30542;47.928;2.138;2023-08-01T16:34:52;99674.63;;;24.06;46.59
44825;BME280;30542;47.928;2.138;2023-08-01T16:39:53;99673.84;;;24.06;46.64
44825;BME280;30542;47.928;2.138;2023-08-01T16:44:53;99671.94;;;24.06;46.58
44825;BME280;30542;47.928;2.138;2023-08-01T16:49:54;99670.66;;;24.04;46.68
44825;BME280;30542;47.928;2.138;2023-08-01T16:54:55;99660.84;;;24.08;46.67
44825;BME280;30542;47.928;2.138;2023-08-01T16:59:56;99645.50;;;24.09;47.21
44825;BME280;30542;47.928;2.138;2023-08-01T17:04:56;99651.88;;;24.13;47.34
44825;BME280;30542;47.928;2.138;2023-08-01T17:10:00;99635.72;;;24.13;47.49
44825;BME280;30542;47.928;2.138;2023-08-01T17:15:01;99619.09;;;24.11;47.65
44825;BME280;30542;47.928;2.138;2023-08-01T17:20:01;99619.56;;;24.13;48.08
44825;BME280;30542;47.928;2.138;2023-08-01T17:25:04;99610.44;;;24.14;48.25
44825;BME280;30542;47.928;2.138;2023-08-01T17:30:04;99613.16;;;24.22;48.46
44825;BME280;30542;47.928;2.138;2023-08-01T17:35:05;99627.88;;;24.25;48.47
44825;BME280;30542;47.928;2.138;2023-08-01T17:40:07;99627.88;;;24.25;48.92
44825;BME280;30542;47.928;2.138;2023-08-01T17:45:08;99619.00;;;24.24;48.67
44825;BME280;30542;47.928;2.138;2023-08-01T17:50:10;99620.59;;;24.25;48.84
44825;BME280;30542;47.928;2.138;2023-08-01T17:55:10;99619.00;;;24.24;48.98
44825;BME280;30542;47.928;2.138;2023-08-01T18:00:11;99619.31;;;24.23;49.00
44825;BME280;30542;47.928;2.138;2023-08-01T18:05:12;99613.16;;;24.22;49.10
44825;BME280;30542;47.928;2.138;2023-08-01T18:10:13;99604.91;;;24.19;49.19
44825;BME280;30542;47.928;2.138;2023-08-01T18:15:13;99609.19;;;24.20;49.19
44825;BME280;30542;47.928;2.138;2023-08-01T18:20:13;99605.69;;;24.19;49.08
44825;BME280;30542;47.928;2.138;2023-08-01T18:25:14;99617.25;;;24.20;49.15
44825;BME280;30542;47.928;2.138;2023-08-01T18:30:14;99619.16;;;24.19;48.94
44825;BME280;30542;47.928;2.138;2023-08-01T18:35:15;99612.19;;;24.18;49.00
44825;BME280;30542;47.928;2.138;2023-08-01T18:40:15;99617.84;;;24.17;48.85
44825;BME280;30542;47.928;2.138;2023-08-01T18:45:17;99596.34;;;24.17;48.90
44825;BME280;30542;47.928;2.138;2023-08-01T18:50:17;99602.81;;;24.16;48.93
44825;BME280;30542;47.928;2.138;2023-08-01T18:55:18;99597.44;;;24.16;48.75
44825;BME280;30542;47.928;2.138;2023-08-01T19:00:18;99608.19;;;24.16;49.04
44825;BME280;30542;47.928;2.138;2023-08-01T19:05:19;99608.19;;;24.16;49.18
44825;BME280;30542;47.928;2.138;2023-08-01T19:10:19;99603.63;;;24.16;49.08
44825;BME280;30542;47.928;2.138;2023-08-01T19:15:19;99616.75;;;24.18;49.05
44825;BME280;30542;47.928;2.138;2023-08-01T19:20:20;99608.38;;;24.19;49.06
44825;BME280;30542;47.928;2.138;2023-08-01T19:25:20;99623.09;;;24.22;49.24
44825;BME280;30542;47.928;2.138;2023-08-01T19:30:21;99620.91;;;24.24;49.30
44825;BME280;30542;47.928;2.138;2023-08-01T19:35:21;99621.09;;;24.27;49.53
44825;BME280;30542;47.928;2.138;2023-08-01T19:40:21;99611.72;;;24.25;49.50
44825;BME280;30542;47.928;2.138;2023-08-01T19:45:22;99609.81;;;24.25;49.65
44825;BME280;30542;47.928;2.138;2023-08-01T19:50:22;99601.75;;;24.25;49.91
44825;BME280;30542;47.928;2.138;2023-08-01T19:55:24;99599.38;;;24.24;49.90
44825;BME280;30542;47.928;2.138;2023-08-01T20:00:25;99602.69;;;24.21;50.27
44825;BME280;30542;47.928;2.138;2023-08-01T20:05:28;99623.09;;;24.22;50.60
44825;BME280;30542;47.928;2.138;2023-08-01T20:10:28;99598.88;;;24.22;50.95
44825;BME280;30542;47.928;2.138;2023-08-01T20:15:29;99603.78;;;24.20;51.10
44825;BME280;30542;47.928;2.138;2023-08-01T20:20:29;99597.63;;;24.19;51.52
44825;BME280;30542;47.928;2.138;2023-08-01T20:25:29;99587.97;;;24.18;51.54
44825;BME280;30542;47.928;2.138;2023-08-01T20:30:30;99605.97;;;24.18;51.51
44825;BME280;30542;47.928;2.138;2023-08-01T20:35:30;99596.03;;;24.18;51.65
44825;BME280;30542;47.928;2.138;2023-08-01T20:40:31;99581.75;;;24.18;51.85
44825;BME280;30542;47.928;2.138;2023-08-01T20:45:34;99578.59;;;24.16;52.35
44825;BME280;30542;47.928;2.138;2023-08-01T20:50:35;99580.19;;;24.17;52.63
44825;BME280;30542;47.928;2.138;2023-08-01T20:55:35;99578.28;;;24.17;52.81
44825;BME280;30542;47.928;2.138;2023-08-01T21:00:35;99566.72;;;24.17;52.73
44825;BME280;30542;47.928;2.138;2023-08-01T21:05:36;99564.84;;;24.17;52.92
44825;BME280;30542;47.928;2.138;2023-08-01T21:10:36;99556.91;;;24.12;52.57
44825;BME280;30542;47.928;2.138;2023-08-01T21:15:36;99546.63;;;24.14;52.97
44825;BME280;30542;47.928;2.138;2023-08-01T21:20:37;99547.44;;;24.15;52.68
44825;BME280;30542;47.928;2.138;2023-08-01T21:25:37;99530.78;;;24.13;52.62
44825;BME280;30542;47.928;2.138;2023-08-01T21:30:37;99542.03;;;24.15;53.03
44825;BME280;30542;47.928;2.138;2023-08-01T21:35:38;99530.16;;;24.16;52.81
44825;BME280;30542;47.928;2.138;2023-08-01T21:40:38;99520.53;;;24.15;52.78
44825;BME280;30542;47.928;2.138;2023-08-01T21:45:39;99508.19;;;24.14;52.81
44825;BME280;30542;47.928;2.138;2023-08-01T21:50:39;99499.00;;;24.15;52.71
44825;BME280;30542;47.928;2.138;2023-08-01T21:55:39;99478.59;;;24.14;52.68
44825;BME280;30542;47.928;2.138;2023-08-01T22:00:40;99471.13;;;24.11;52.53
44825;BME280;30542;47.928;2.138;2023-08-01T22:05:41;99466.22;;;24.13;52.58
44825;BME280;30542;47.928;2.138;2023-08-01T22:10:41;99453.09;;;24.11;52.58
44825;BME280;30542;47.928;2.138;2023-08-01T22:15:41;99442.66;;;24.10;52.67
44825;BME280;30542;47.928;2.138;2023-08-01T22:20:42;99423.00;;;24.09;52.54
44825;BME280;30542;47.928;2.138;2023-08-01T22:25:42;99422.22;;;24.09;52.51
44825;BME280;30542;47.928;2.138;2023-08-01T22:30:42;99419.53;;;24.09;52.48
44825;BME280;30542;47.928;2.138;2023-08-01T22:35:43;99416.53;;;24.10;52.43
44825;BME280;30542;47.928;2.138;2023-08-01T22:40:43;99401.47;;;24.09;52.51
44825;BME280;30542;47.928;2.138;2023-08-01T22:45:43;99387.22;;;24.09;52.54
44825;BME280;30542;47.928;2.138;2023-08-01T22:50:44;99395.31;;;24.09;52.48
44825;BME280;30542;47.928;2.138;2023-08-01T22:55:45;99391.03;;;24.08;52.68
44825;BME280;30542;47.928;2.138;2023-08-01T23:00:45;99376.00;;;24.06;52.63
44825;BME280;30542;47.928;2.138;2023-08-01T23:05:45;99357.19;;;24.06;52.54
44825;BME280;30542;47.928;2.138;2023-08-01T23:10:46;99353.38;;;24.08;52.55
44825;BME280;30542;47.928;2.138;2023-08-01T23:15:46;99337.38;;;24.02;52.76
44825;BME280;30542;47.928;2.138;2023-08-01T23:20:47;99333.25;;;24.05;52.64
44825;BME280;30542;47.928;2.138;2023-08-01T23:25:47;99328.22;;;24.03;52.62
44825;BME280;30542;47.928;2.138;2023-08-01T23:30:47;99320.13;;;24.03;52.70
44825;BME280;30542;47.928;2.138;2023-08-01T23:35:53;99297.03;;;24.02;52.79
44825;BME280;30542;47.928;2.138;2023-08-01T23:40:53;99276.78;;;23.96;53.09
44825;BME280;30542;47.928;2.138;2023-08-01T23:45:54;99286.59;;;24.01;52.76
44825;BME280;30542;47.928;2.138;2023-08-01T23:50:54;99263.19;;;24.01;52.64
44825;BME280;30542;47.928;2.138;2023-08-01T23:55:58;99260.16;;;24.03;52.69
